Últimos artigos:
Falta de som no Morse Runner em Linux?
Touchpad tapping, em Debian Buster (10)
Acender um LED com a tensão da rede eléctrica
Programação do Yaesu FT-60 para os EasySats
AO-91 (RadFxSat Fox-1B) está no Ar!
CT7AFR DIY CW-Keyer
Últimas fotos:
Últimos METARs:
LPAZ 030900Z 06005KT 010V100 9999 FEW026 2...
LPFR 030900Z 03003KT 310V120 CAVOK 24/09 Q...
LPHR 030900Z 25004KT 9999 FEW012 SCT018 BK...
LPLA 030900Z /////KT 9999 FEW020 SCT035 20...
LPMA 030900Z 02017KT 340V050 9999 FEW016 B...
LPPD 030900Z 26003KT 220V340 9999 FEW025 1...
LPPR 030900Z 35007KT CAVOK 18/11 Q1022=
LPPS 030900Z 04012KT 360V080 9999 SCT015 2...
LPPT 030900Z 33014KT 9999 FEW025 20/12 Q10...
Últimos QSOs:
2020/06/05-17:40 6m IK6DTB (GIUSEPPE)
2020/06/05-17:35 6m EA8OM (HEIJO)
2020/06/05-17:31 6m I0SNY (NICOLA)
2020/06/05-17:27 6m DF4WC (ANDREAS)
2020/06/05-17:13 6m DO3EF (PATRICK)
2020/06/05-17:09 6m DK7ZT (BERND)
  UTC
Rpi-6 CPU Temp: 454642.0 °C (251812Z)
IN51oq 0927Z /////KT //// 26/12 Q1023=
125032